Latest Weather Observations for Sydney Harbour

IDN60801

Issued at 8:32 am EDT Monday 8 February 2016 (issued every 30 minutes, with the page automatically refreshed every 10 minutes)

About weather observations | Map of weather stations | Latest weather observations for NSW | Other Formats
Station Details ID: 066196 Name: WEDDING CAKE WEST Lat: -33.84 Lon: 151.26 Height: 6.0 m
Data from the previous 72 hours. | See also: Recent months at Sydney Harbour
Date/Time
EDT
Temp
°C
App
Temp
°C
Dew
Point
Rel
Hum
%
Delta-T
°C
Wind Press
QNH
hPa
Press
MSL
hPa
Rain
since 9 am
mm
Dir
 
Spd
km/h
Gust
km/h
Spd
kts
Gust
kts
08/08:30am 21.4 - - - - WSW 15 17 8 9 - - -
08/08:00am 21.3 - - - - WSW 13 15 7 8 - - -
08/07:30am 21.2 - - - - WSW 13 17 7 9 - - -
08/07:00am 21.0 - - - - WSW 15 19 8 10 - - -
08/06:30am 21.0 - - - - WSW 15 20 8 11 - - -
08/06:00am 20.9 - - - - WSW 15 19 8 10 - - -
08/05:30am 20.8 - - - - WSW 11 15 6 8 - - -
08/05:00am 20.7 - - - - WSW 9 13 5 7 - - -
08/04:30am 20.8 - - - - W 9 11 5 6 - - -
08/04:00am 21.0 - - - - W 11 13 6 7 - - -
08/03:30am 21.1 - - - - WSW 15 19 8 10 - - -
08/03:00am 21.5 - - - - W 15 17 8 9 - - -
08/02:30am 21.8 - - - - SW 13 15 7 8 - - -
08/02:00am 21.8 - - - - SE 9 11 5 6 - - -
08/01:30am 21.8 - - - - SE 9 9 5 5 - - -
08/01:00am 21.9 - - - - SE 7 7 4 4 - - -
08/12:30am 22.1 - - - - SE 6 7 3 4 - - -
08/12:00am 22.4 - - - - SE 7 9 4 5 - - -
 
Date/Time
EDT
Temp
°C
App
Temp
°C
Dew
Point
Rel
Hum
%
Delta-T
°C
Wind Press
QNH
hPa
Press
MSL
hPa
Rain
since 9 am
mm
Dir
 
Spd
km/h
Gust
km/h
Spd
kts
Gust
kts
07/11:30pm 22.4 - - - - SE 6 7 3 4 - - -
07/11:00pm 22.3 - - - - SE 7 9 4 5 - - -
07/10:30pm 22.4 - - - - CALM 0 0 0 0 - - -
07/10:00pm 22.5 - - - - CALM 0 0 0 0 - - -
07/09:30pm 22.9 - - - - CALM 0 6 0 3 - - -
07/09:00pm 23.3 - - - - SE 7 9 4 5 - - -
07/08:30pm 23.4 - - - - SE 9 13 5 7 - - -
07/08:00pm 23.6 - - - - ESE 11 15 6 8 - - -
07/07:30pm 23.9 - - - - E 9 11 5 6 - - -
07/07:00pm 24.4 - - - - E 9 13 5 7 - - -
07/06:30pm 24.7 - - - - E 13 17 7 9 - - -
07/06:00pm 24.8 - - - - E 15 19 8 10 - - -
07/05:30pm 24.7 - - - - ESE 19 24 10 13 - - -
07/05:00pm 24.7 - - - - ESE 20 24 11 13 - - -
07/04:30pm 24.7 - - - - ESE 19 24 10 13 - - -
07/04:00pm 24.8 - - - - ESE 19 24 10 13 - - -
07/03:30pm 24.5 - - - - ESE 19 22 10 12 - - -
07/03:00pm 24.6 - - - - ESE 17 22 9 12 - - -
07/02:30pm 24.4 - - - - SE 19 24 10 13 - - -
07/02:00pm 24.2 - - - - SE 17 26 9 14 - - -
07/01:30pm 24.0 - - - - SE 17 22 9 12 - - -
07/01:00pm 24.1 - - - - SE 15 20 8 11 - - -
07/12:30pm 24.1 - - - - SE 13 19 7 10 - - -
07/12:00pm 23.7 - - - - SE 15 20 8 11 - - -
07/11:30am 23.9 - - - - SE 13 20 7 11 - - -
07/11:00am 23.8 - - - - SE 13 19 7 10 - - -
07/10:30am 23.6 - - - - SE 13 17 7 9 - - -
07/10:00am 23.1 - - - - SSE 17 22 9 12 - - -
07/09:30am 23.0 - - - - S 19 30 10 16 - - -
07/09:00am 22.2 - - - - WSW 7 11 4 6 - - -
07/08:30am 21.8 - - - - WSW 9 11 5 6 - - -
07/08:00am 21.5 - - - - WSW 11 13 6 7 - - -
07/07:30am 20.9 - - - - WSW 11 13 6 7 - - -
07/07:00am 20.9 - - - - WSW 9 11 5 6 - - -
07/06:30am 21.3 - - - - WSW 9 11 5 6 - - -
07/06:00am 21.5 - - - - SSE 9 11 5 6 - - -
07/05:30am 22.4 - - - - SE 13 17 7 9 - - -
07/05:00am 22.4 - - - - SSE 13 17 7 9 - - -
07/04:30am 22.6 - - - - SE 15 19 8 10 - - -
07/04:00am 22.6 - - - - SSE 13 15 7 8 - - -
07/03:30am 22.7 - - - - SSE 15 19 8 10 - - -
07/03:00am 22.5 - - - - SSE 15 17 8 9 - - -
07/02:30am 22.7 - - - - SSE 13 17 7 9 - - -
07/02:00am 22.8 - - - - SSE 11 15 6 8 - - -
07/01:30am 22.7 - - - - SSE 13 19 7 10 - - -
07/01:00am 22.8 - - - - SE 15 19 8 10 - - -
07/12:30am 22.9 - - - - SE 17 20 9 11 - - -
07/12:00am 22.8 - - - - SE 13 19 7 10 - - -
 
Date/Time
EDT
Temp
°C
App
Temp
°C
Dew
Point
Rel
Hum
%
Delta-T
°C
Wind Press
QNH
hPa
Press
MSL
hPa
Rain
since 9 am
mm
Dir
 
Spd
km/h
Gust
km/h
Spd
kts
Gust
kts
06/11:30pm 22.8 - - - - SE 17 20 9 11 - - -
06/11:00pm 22.7 - - - - SSE 15 22 8 12 - - -
06/10:30pm 22.7 - - - - SE 17 20 9 11 - - -
06/10:00pm 22.9 - - - - SE 19 22 10 12 - - -
06/09:30pm 22.9 - - - - SE 17 20 9 11 - - -
06/09:00pm 23.0 - - - - SE 17 26 9 14 - - -
06/08:30pm 23.0 - - - - SE 20 24 11 13 - - -
06/08:00pm 23.0 - - - - SE 17 22 9 12 - - -
06/07:30pm 23.1 - - - - SE 19 24 10 13 - - -
06/07:00pm 23.3 - - - - SE 20 26 11 14 - - -
06/06:30pm 23.4 - - - - ESE 19 24 10 13 - - -
06/06:00pm 23.4 - - - - SE 24 30 13 16 - - -
06/05:30pm 23.8 - - - - SE 24 30 13 16 - - -
06/05:00pm 24.2 - - - - SE 24 32 13 17 - - -
06/04:30pm 23.8 - - - - SE 22 30 12 16 - - -
06/04:00pm 24.0 - - - - SE 24 30 13 16 - - -
06/03:30pm 24.2 - - - - SE 22 28 12 15 - - -
06/03:00pm 23.8 - - - - SE 24 30 13 16 - - -
06/02:30pm 23.8 - - - - SE 24 30 13 16 - - -
06/02:00pm 23.5 - - - - SE 24 32 13 17 - - -
06/01:30pm 23.8 - - - - SE 24 30 13 16 - - -
06/01:00pm 23.8 - - - - ESE 24 30 13 16 - - -
06/12:30pm 23.7 - - - - SE 26 32 14 17 - - -
06/12:00pm 23.9 - - - - SE 22 28 12 15 - - -
06/11:30am 23.5 - - - - SE 20 28 11 15 - - -
06/11:00am 23.4 - - - - SE 22 30 12 16 - - -
06/10:30am 23.1 - - - - SE 24 32 13 17 - - -
06/10:00am 22.8 - - - - SE 24 32 13 17 - - -
06/09:30am 22.6 - - - - SSE 20 28 11 15 - - -
06/09:00am 22.8 - - - - SSE 22 33 12 18 - - -
06/08:30am 22.3 - - - - SSE 26 35 14 19 - - -
06/08:00am 20.8 - - - - SSW 19 22 10 12 - - -
06/07:30am 20.8 - - - - SSE 22 32 12 17 - - -
06/07:00am 22.5 - - - - SSE 24 32 13 17 - - -
06/06:30am 22.0 - - - - S 22 32 12 17 - - -
06/06:00am 22.3 - - - - SSE 24 33 13 18 - - -
06/05:30am 22.5 - - - - SSE 24 32 13 17 - - -
06/05:00am 22.4 - - - - S 22 35 12 19 - - -
06/04:30am 22.3 - - - - SSE 22 28 12 15 - - -
06/04:00am 22.0 - - - - S 24 32 13 17 - - -
06/03:30am 21.9 - - - - SSE 26 35 14 19 - - -
06/03:00am 22.1 - - - - SSE 28 41 15 22 - - -
06/02:30am 22.4 - - - - SSE 24 32 13 17 - - -
06/02:00am 22.4 - - - - SSE 28 39 15 21 - - -
06/01:30am 22.3 - - - - SSE 28 33 15 18 - - -
06/01:00am 22.3 - - - - SSE 28 37 15 20 - - -
06/12:30am 22.6 - - - - SSE 26 32 14 17 - - -
06/12:00am 22.6 - - - - SSE 28 37 15 20 - - -
 
Date/Time
EDT
Temp
°C
App
Temp
°C
Dew
Point
Rel
Hum
%
Delta-T
°C
Wind Press
QNH
hPa
Press
MSL
hPa
Rain
since 9 am
mm
Dir
 
Spd
km/h
Gust
km/h
Spd
kts
Gust
kts
05/11:30pm 22.3 - - - - S 22 32 12 17 - - -
05/11:00pm 21.5 - - - - S 24 32 13 17 - - -
05/10:30pm 22.1 - - - - S 32 39 17 21 - - -
05/10:00pm 22.3 - - - - SSE 33 46 18 25 - - -
05/09:30pm 22.8 - - - - SSE 30 39 16 21 - - -
05/09:00pm 22.8 - - - - SSE 33 44 18 24 - - -
05/08:30pm 22.7 - - - - SSE 30 41 16 22 - - -
05/08:00pm 22.5 - - - - S 28 37 15 20 - - -
05/07:30pm 22.6 - - - - S 35 46 19 25 - - -
05/07:00pm 22.7 - - - - SSE 33 46 18 25 - - -
05/06:30pm 22.7 - - - - S 32 41 17 22 - - -
05/06:00pm 22.8 - - - - S 37 46 20 25 - - -
05/05:30pm 23.0 - - - - SSE 39 52 21 28 - - -
05/05:00pm 22.8 - - - - S 37 46 20 25 - - -
05/04:30pm 23.3 - - - - S 35 50 19 27 - - -
05/04:00pm 23.1 - - - - S 37 46 20 25 - - -
05/03:30pm 22.9 - - - - S 39 50 21 27 - - -
05/03:00pm 22.8 - - - - S 39 48 21 26 - - -
05/02:30pm 23.2 - - - - S 35 50 19 27 - - -
05/02:20pm 23.0 - - - - S 33 52 18 28 - - -
05/02:00pm 23.0 - - - - S 43 54 23 29 - - -
05/01:30pm 23.3 - - - - SSE 37 48 20 26 - - -
05/01:00pm 22.8 - - - - S 39 50 21 27 - - -
05/12:30pm 22.7 - - - - S 39 54 21 29 - - -
05/12:02pm 23.0 - - - - S 37 56 20 30 - - -
05/12:00pm 22.8 - - - - S 39 56 21 30 - - -
05/11:32am 22.6 - - - - S 39 57 21 31 - - -
05/11:30am 22.6 - - - - S 41 57 22 31 - - -
05/11:04am 22.2 - - - - S 33 52 18 28 - - -
05/11:00am 22.2 - - - - S 35 52 19 28 - - -
05/10:30am 22.3 - - - - S 32 43 17 23 - - -
05/10:00am 22.1 - - - - SSE 32 44 17 24 - - -
05/09:42am 21.9 - - - - S 35 54 19 29 - - -
05/09:30am 21.7 - - - - S 37 52 20 28 - - -
05/09:00am 21.5 - - - - S 37 50 20 27 - - -

Other Formats:

Comma delimited format used in spreadsheet applications
http://www.bom.gov.au/fwo/IDN60801/IDN60801.95766.axf

JavaScript Object Notation format (JSON) in row-major order
http://www.bom.gov.au/fwo/IDN60801/IDN60801.95766.json